createdAt,value
2018-12-22T00:00:51.533Z,10.28
2018-12-22T00:02:44.509Z,10.19
2018-12-22T00:03:44.566Z,10.19
2018-12-22T00:05:37.550Z,10.31
2018-12-22T00:06:37.604Z,10.28
2018-12-22T00:08:30.587Z,10.34
2018-12-22T00:09:30.641Z,10.28
2018-12-22T00:11:23.622Z,10.28
2018-12-22T00:12:23.682Z,10.28
2018-12-22T00:14:16.666Z,10.30
2018-12-22T00:15:16.717Z,10.23
2018-12-22T00:17:09.694Z,10.22
2018-12-22T00:18:09.750Z,10.28
2018-12-22T00:20:02.736Z,10.17
2018-12-22T00:21:02.786Z,10.23
2018-12-22T00:22:55.770Z,10.23
2018-12-22T00:23:55.825Z,10.22
2018-12-22T00:25:48.812Z,10.20
2018-12-22T00:26:48.859Z,10.22
2018-12-22T00:28:41.846Z,10.17
2018-12-22T00:29:41.898Z,10.22
2018-12-22T00:31:34.879Z,10.10
2018-12-22T00:32:34.932Z,10.17
2018-12-22T00:34:27.916Z,10.12
2018-12-22T00:35:27.966Z,10.16
2018-12-22T00:37:20.951Z,10.15
2018-12-22T00:38:21.012Z,10.13
2018-12-22T00:40:14.000Z,10.13
2018-12-22T00:41:14.046Z,10.16
2018-12-22T00:43:07.027Z,10.15
2018-12-22T00:44:07.086Z,10.16
2018-12-22T00:46:00.073Z,10.12
2018-12-22T00:47:00.120Z,10.13
2018-12-22T00:48:53.105Z,10.17
2018-12-22T00:49:53.157Z,10.13
2018-12-22T00:51:46.146Z,9.95
2018-12-22T00:52:46.201Z,9.98
2018-12-22T00:54:39.186Z,10.13
2018-12-22T00:55:39.239Z,10.12
2018-12-22T00:57:32.215Z,10.12
2018-12-22T00:58:32.270Z,10.12
2018-12-22T01:00:25.264Z,10.16
2018-12-22T01:01:25.305Z,10.05
2018-12-22T01:03:18.285Z,10.12
2018-12-22T01:04:18.342Z,10.01
2018-12-22T01:06:11.331Z,9.95
2018-12-22T01:07:11.388Z,9.98
2018-12-22T01:09:04.412Z,9.99
2018-12-22T01:10:04.421Z,10.04
2018-12-22T01:11:57.404Z,10.02
2018-12-22T01:12:57.459Z,10.05
2018-12-22T01:14:50.443Z,9.97
2018-12-22T01:15:50.494Z,10.01
2018-12-22T01:17:43.474Z,9.99
2018-12-22T01:18:43.531Z,10.01
2018-12-22T01:20:36.517Z,10.02
2018-12-22T01:21:36.566Z,9.97
2018-12-22T01:23:29.550Z,9.98
2018-12-22T01:24:29.603Z,10.01
2018-12-22T01:26:22.591Z,9.98
2018-12-22T01:27:22.638Z,9.95
2018-12-22T01:29:15.629Z,9.98
2018-12-22T01:30:15.675Z,9.95
2018-12-22T01:32:08.651Z,10.07
2018-12-22T01:33:08.749Z,10.10
2018-12-22T01:35:01.694Z,10.07
2018-12-22T01:36:01.744Z,10.12
2018-12-22T01:37:54.721Z,10.09
2018-12-22T01:38:54.781Z,10.07
2018-12-22T01:40:47.770Z,10.15
2018-12-22T01:41:47.823Z,10.05
2018-12-22T01:43:40.797Z,9.99
2018-12-22T01:44:40.855Z,10.09
2018-12-22T01:46:33.843Z,10.02
2018-12-22T01:47:33.893Z,9.99
2018-12-22T01:49:26.885Z,9.99
2018-12-22T01:50:26.935Z,9.99
2018-12-22T01:52:19.915Z,9.99
2018-12-22T01:53:19.972Z,9.98
2018-12-22T01:55:12.956Z,10.01
2018-12-22T01:56:13.006Z,10.07
2018-12-22T01:58:05.987Z,9.95
2018-12-22T01:59:06.044Z,9.95
2018-12-22T02:00:59.027Z,10.05
2018-12-22T02:01:59.078Z,10.04
2018-12-22T02:03:52.058Z,10.02
2018-12-22T02:04:52.122Z,9.98
2018-12-22T02:06:45.106Z,10.16
2018-12-22T02:07:45.155Z,10.15
2018-12-22T02:09:38.137Z,10.10
2018-12-22T02:10:38.191Z,10.12
2018-12-22T02:12:31.171Z,10.13
2018-12-22T02:13:31.226Z,10.09
2018-12-22T02:15:24.210Z,10.13
2018-12-22T02:16:24.261Z,10.16
2018-12-22T02:18:17.252Z,10.13
2018-12-22T02:19:17.305Z,10.13
2018-12-22T02:21:10.294Z,10.13
2018-12-22T02:22:10.344Z,10.12
2018-12-22T02:24:03.328Z,10.13
2018-12-22T02:25:03.383Z,10.16
2018-12-22T02:26:56.367Z,10.15
2018-12-22T02:27:56.418Z,10.17
2018-12-22T02:29:49.404Z,10.26
2018-12-22T02:30:49.455Z,10.22
2018-12-22T02:32:42.437Z,10.17
2018-12-22T02:33:42.489Z,10.20
2018-12-22T02:35:35.473Z,10.17
2018-12-22T02:36:35.525Z,10.22
2018-12-22T02:38:28.503Z,10.25
2018-12-22T02:39:28.558Z,10.22
2018-12-22T02:41:21.552Z,10.15
2018-12-22T02:42:21.597Z,10.16
2018-12-22T02:44:14.577Z,10.20
2018-12-22T02:45:14.632Z,10.15
2018-12-22T02:47:07.624Z,10.17
2018-12-22T02:48:07.676Z,10.13
2018-12-22T02:50:00.664Z,10.12
2018-12-22T02:51:00.705Z,10.16
2018-12-22T02:52:53.696Z,10.10
2018-12-22T02:53:53.745Z,10.13
2018-12-22T02:55:46.728Z,10.25
2018-12-22T02:56:46.778Z,10.26
2018-12-22T02:58:39.753Z,10.30
2018-12-22T02:59:39.813Z,10.17
2018-12-22T03:01:32.804Z,10.19
2018-12-22T03:02:32.851Z,10.25
2018-12-22T03:04:25.830Z,10.15
2018-12-22T03:05:25.887Z,10.26
2018-12-22T03:07:18.877Z,10.30
2018-12-22T03:08:18.938Z,10.22
2018-12-22T03:10:11.914Z,10.25
2018-12-22T03:11:11.960Z,10.28
2018-12-22T03:13:04.936Z,10.19
2018-12-22T03:14:04.994Z,10.17
2018-12-22T03:15:57.979Z,10.19
2018-12-22T03:16:58.031Z,10.22
2018-12-22T03:18:51.007Z,10.26
2018-12-22T03:19:51.062Z,10.15
2018-12-22T03:21:44.073Z,10.22
2018-12-22T03:22:44.120Z,10.17
2018-12-22T03:24:37.106Z,10.15
2018-12-22T03:25:37.160Z,10.20
2018-12-22T03:27:30.158Z,10.16
2018-12-22T03:28:30.194Z,10.16
2018-12-22T03:30:23.186Z,10.19
2018-12-22T03:31:23.246Z,10.15
2018-12-22T03:33:16.740Z,10.16
2018-12-22T03:34:16.786Z,10.12
2018-12-22T03:36:09.770Z,10.22
2018-12-22T03:37:09.824Z,10.13
2018-12-22T03:39:02.799Z,10.17
2018-12-22T03:40:02.859Z,10.16
2018-12-22T03:41:55.845Z,10.12
2018-12-22T03:42:55.963Z,10.22
2018-12-22T03:44:48.875Z,10.12
2018-12-22T03:45:49.228Z,10.10
2018-12-22T03:47:41.910Z,10.13
2018-12-22T03:48:41.959Z,10.17
2018-12-22T03:50:34.950Z,10.13
2018-12-22T03:51:34.995Z,10.16
2018-12-22T03:53:27.974Z,10.12
2018-12-22T03:54:28.031Z,10.12
2018-12-22T03:56:21.014Z,10.17
2018-12-22T03:57:21.065Z,10.12
2018-12-22T03:59:14.040Z,10.13
2018-12-22T04:00:14.100Z,10.10
2018-12-22T04:02:07.089Z,10.09
2018-12-22T04:03:07.135Z,10.09
2018-12-22T04:05:00.139Z,10.13
2018-12-22T04:06:00.174Z,10.15
2018-12-22T04:07:53.150Z,10.05
2018-12-22T04:08:53.206Z,10.04
2018-12-22T04:10:46.191Z,9.98
2018-12-22T04:11:46.245Z,10.04
2018-12-22T04:13:39.226Z,10.02
2018-12-22T04:14:39.285Z,9.98
2018-12-22T04:16:32.283Z,10.12
2018-12-22T04:17:32.323Z,9.97
2018-12-22T04:19:25.299Z,9.97
2018-12-22T04:20:25.357Z,10.01
2018-12-22T04:22:18.339Z,9.97
2018-12-22T04:23:18.389Z,10.02
2018-12-22T04:25:11.374Z,10.01
2018-12-22T04:26:11.423Z,9.99
2018-12-22T04:28:04.417Z,9.98
2018-12-22T04:29:04.467Z,10.02
2018-12-22T04:30:57.450Z,9.98
2018-12-22T04:31:57.501Z,9.94
2018-12-22T04:33:50.987Z,10.05
2018-12-22T04:34:51.075Z,9.99
2018-12-22T04:36:44.028Z,9.99
2018-12-22T04:37:44.078Z,9.99
2018-12-22T04:39:37.058Z,9.92
2018-12-22T04:40:37.114Z,9.94
2018-12-22T04:42:30.096Z,9.94
2018-12-22T04:43:30.143Z,9.92
2018-12-22T04:45:23.157Z,9.92
2018-12-22T04:46:23.182Z,9.92
2018-12-22T04:48:16.162Z,9.98
2018-12-22T04:49:16.217Z,9.89
2018-12-22T04:51:09.207Z,9.97
2018-12-22T04:52:09.255Z,9.92
2018-12-22T04:54:02.231Z,9.98
2018-12-22T04:55:02.385Z,9.91
2018-12-22T04:56:55.277Z,9.97
2018-12-22T04:57:55.329Z,9.92
2018-12-22T04:59:48.309Z,9.97
2018-12-22T05:00:48.368Z,9.92
2018-12-22T05:02:41.353Z,9.83
2018-12-22T05:03:41.402Z,9.92
2018-12-22T05:05:34.391Z,9.83
2018-12-22T05:06:34.439Z,9.89
2018-12-22T05:08:27.416Z,9.89
2018-12-22T05:09:27.472Z,9.89
2018-12-22T05:11:20.467Z,9.89
2018-12-22T05:12:20.515Z,9.89
2018-12-22T05:14:13.493Z,9.91
2018-12-22T05:15:13.549Z,9.89
2018-12-22T05:17:06.535Z,9.87
2018-12-22T05:18:06.585Z,9.82
2018-12-22T05:19:59.562Z,9.77
2018-12-22T05:20:59.624Z,9.84
2018-12-22T05:22:52.622Z,9.77
2018-12-22T05:23:52.656Z,9.94
2018-12-22T05:25:45.639Z,9.82
2018-12-22T05:26:45.691Z,9.86
2018-12-22T05:28:38.670Z,9.92
2018-12-22T05:29:38.978Z,9.91
2018-12-22T05:31:31.711Z,9.95
2018-12-22T05:32:31.763Z,9.95
2018-12-22T05:34:24.744Z,9.86
2018-12-22T05:35:24.800Z,9.94
2018-12-22T05:37:17.809Z,10.01
2018-12-22T05:38:17.866Z,9.99
2018-12-22T05:40:10.838Z,10.01
2018-12-22T05:42:51.897Z,9.98
2018-12-22T05:43:51.943Z,10.02
2018-12-22T05:45:45.435Z,9.94
2018-12-22T05:46:45.490Z,9.99
2018-12-22T05:48:38.489Z,10.02
2018-12-22T05:49:38.522Z,10.01
2018-12-22T05:51:31.512Z,9.95
2018-12-22T05:52:31.588Z,10.13
2018-12-22T05:54:24.555Z,10.13
2018-12-22T05:55:24.609Z,10.19
2018-12-22T05:57:21.735Z,10.26
2018-12-22T05:58:19.173Z,10.25
2018-12-22T06:00:12.147Z,10.26
2018-12-22T06:01:12.222Z,10.30
2018-12-22T06:03:05.187Z,10.34
2018-12-22T06:04:05.241Z,10.38
2018-12-22T06:05:58.229Z,10.34
2018-12-22T06:06:58.276Z,10.41
2018-12-22T06:08:51.260Z,10.48
2018-12-22T06:09:51.309Z,10.51
2018-12-22T06:11:44.292Z,10.56
2018-12-22T06:12:44.346Z,10.49
2018-12-22T06:14:37.323Z,10.54
2018-12-22T06:15:37.378Z,10.53
2018-12-22T06:17:30.362Z,10.64
2018-12-22T06:18:30.598Z,10.59
2018-12-22T06:20:23.401Z,10.68
2018-12-22T06:21:23.461Z,10.68
2018-12-22T06:23:16.454Z,10.71
2018-12-22T06:24:16.509Z,10.67
2018-12-22T06:26:09.534Z,10.64
2018-12-22T06:27:09.561Z,10.63
2018-12-22T06:29:02.548Z,10.63
2018-12-22T06:30:09.057Z,10.69
2018-12-22T06:31:55.636Z,10.68
2018-12-22T06:32:55.635Z,10.69
2018-12-22T06:34:48.615Z,10.64
2018-12-22T06:35:48.673Z,10.67
2018-12-22T06:37:41.657Z,10.67
2018-12-22T06:38:41.707Z,10.61
2018-12-22T06:40:34.692Z,10.67
2018-12-22T06:41:34.753Z,10.68
2018-12-22T06:43:27.772Z,10.61
2018-12-22T06:44:27.782Z,10.63
2018-12-22T06:46:20.774Z,10.68
2018-12-22T06:47:20.850Z,10.67
2018-12-22T06:49:13.813Z,10.61
2018-12-22T06:50:13.857Z,10.64
2018-12-22T06:52:06.846Z,10.57
2018-12-22T06:53:06.899Z,10.53
2018-12-22T06:54:59.876Z,10.49
2018-12-22T06:55:59.933Z,10.56
2018-12-22T06:57:52.919Z,10.49
2018-12-22T06:58:52.973Z,10.56
2018-12-22T07:00:45.954Z,10.59
2018-12-22T07:01:46.009Z,10.56
2018-12-22T07:03:38.995Z,10.49
2018-12-22T07:04:39.045Z,10.54
2018-12-22T07:06:32.043Z,10.53
2018-12-22T07:07:32.079Z,10.51
2018-12-22T07:09:25.061Z,10.44
2018-12-22T07:10:25.600Z,10.48
2018-12-22T07:12:18.106Z,10.48
2018-12-22T07:13:18.157Z,10.46
2018-12-22T07:15:11.137Z,10.48
2018-12-22T07:16:11.190Z,10.44
2018-12-22T07:18:04.174Z,10.34
2018-12-22T07:19:04.227Z,10.38
2018-12-22T07:20:57.220Z,10.38
2018-12-22T07:21:57.279Z,10.41
2018-12-22T07:23:50.261Z,10.35
2018-12-22T07:24:50.315Z,10.38
2018-12-22T07:26:43.303Z,10.26
2018-12-22T07:27:43.358Z,10.34
2018-12-22T07:29:36.349Z,10.33
2018-12-22T07:30:36.388Z,10.25
2018-12-22T07:32:29.373Z,10.28
2018-12-22T07:33:29.423Z,10.30
2018-12-22T07:35:22.401Z,10.26
2018-12-22T07:36:22.455Z,10.30
2018-12-22T07:38:15.445Z,10.25
2018-12-22T07:39:15.494Z,10.28
2018-12-22T07:41:08.478Z,10.19
2018-12-22T07:42:08.534Z,10.19
2018-12-22T07:44:01.517Z,10.19
2018-12-22T07:45:01.573Z,10.13
2018-12-22T07:46:54.563Z,10.20
2018-12-22T07:47:54.614Z,10.19
2018-12-22T07:49:47.627Z,10.13
2018-12-22T07:50:47.642Z,10.15
2018-12-22T07:52:40.628Z,10.10
2018-12-22T07:53:40.679Z,10.15
2018-12-22T07:55:33.695Z,10.13
2018-12-22T07:56:33.725Z,10.16
2018-12-22T07:58:26.716Z,10.13
2018-12-22T07:59:26.765Z,10.16
2018-12-22T08:01:19.990Z,10.13
2018-12-22T08:02:19.801Z,10.19
2018-12-22T08:04:12.791Z,10.17
2018-12-22T08:05:12.846Z,10.13
2018-12-22T08:07:05.850Z,10.13
2018-12-22T08:08:05.918Z,10.10
2018-12-22T08:09:58.946Z,10.12
2018-12-22T08:10:58.985Z,10.10
2018-12-22T08:12:51.957Z,10.15
2018-12-22T08:13:52.023Z,10.20
2018-12-22T08:15:44.997Z,10.12
2018-12-22T08:16:45.072Z,10.16
2018-12-22T08:18:38.140Z,10.01
2018-12-22T08:19:38.116Z,10.02
2018-12-22T08:21:32.614Z,9.98
2018-12-22T08:22:32.665Z,10.01
2018-12-22T08:24:26.197Z,9.97
2018-12-22T08:25:33.496Z,9.98
2018-12-22T08:27:18.719Z,9.92
2018-12-22T08:29:31.727Z,9.87
2018-12-22T08:30:31.778Z,9.84
2018-12-22T08:32:24.762Z,9.89
2018-12-22T08:33:24.814Z,9.87
2018-12-22T08:35:17.802Z,9.83
2018-12-22T08:36:17.862Z,9.83
2018-12-22T08:38:10.850Z,9.82
2018-12-22T08:39:10.899Z,9.79
2018-12-22T08:41:03.894Z,9.79
2018-12-22T08:42:03.992Z,9.84
2018-12-22T08:43:56.940Z,9.84
2018-12-22T08:44:56.969Z,9.84
2018-12-22T08:46:49.963Z,9.89
2018-12-22T08:47:50.020Z,9.83
2018-12-22T08:49:43.010Z,9.80
2018-12-22T08:50:43.056Z,9.89
2018-12-22T08:52:36.042Z,9.76
2018-12-22T08:53:36.090Z,9.76
2018-12-22T08:55:29.077Z,9.76
2018-12-22T08:56:29.139Z,9.74
2018-12-22T08:58:22.113Z,9.73
2018-12-22T08:59:22.163Z,9.65
2018-12-22T09:01:15.146Z,9.59
2018-12-22T09:02:15.204Z,9.56
2018-12-22T09:04:08.189Z,9.47
2018-12-22T09:05:08.240Z,9.56
2018-12-22T09:07:01.226Z,9.61
2018-12-22T09:08:01.280Z,9.55
2018-12-22T09:09:54.261Z,9.51
2018-12-22T09:10:54.326Z,9.50
2018-12-22T09:12:47.310Z,9.51
2018-12-22T09:13:47.359Z,9.56
2018-12-22T09:15:40.384Z,9.64
2018-12-22T09:16:40.406Z,9.62
2018-12-22T09:18:33.389Z,9.69
2018-12-22T09:19:33.434Z,9.72
2018-12-22T09:21:26.442Z,9.79
2018-12-22T09:22:26.500Z,9.73
2018-12-22T09:24:19.501Z,9.76
2018-12-22T09:25:19.563Z,9.76
2018-12-22T09:27:12.539Z,9.77
2018-12-22T09:28:12.593Z,9.72
2018-12-22T09:30:05.578Z,9.72
2018-12-22T09:31:05.629Z,9.76
2018-12-22T09:32:58.616Z,9.69
2018-12-22T09:33:58.664Z,9.76
2018-12-22T09:35:51.661Z,9.86
2018-12-22T09:36:51.717Z,9.89
2018-12-22T09:38:44.706Z,9.89
2018-12-22T09:39:44.754Z,9.95
2018-12-22T09:41:37.734Z,9.95
2018-12-22T09:42:37.795Z,9.98
2018-12-22T09:44:30.796Z,10.02
2018-12-22T09:45:30.842Z,10.07
2018-12-22T09:47:23.840Z,10.10
2018-12-22T09:48:23.904Z,10.15
2018-12-22T09:50:16.871Z,10.19
2018-12-22T09:52:30.896Z,10.12
2018-12-22T09:53:30.953Z,10.13
2018-12-22T09:56:37.958Z,10.16
2018-12-22T09:57:37.986Z,10.12
2018-12-22T09:59:30.965Z,10.17
2018-12-22T10:00:31.016Z,10.15
2018-12-22T10:02:23.995Z,10.13
2018-12-22T10:03:24.056Z,10.19
2018-12-22T10:05:17.045Z,10.16
2018-12-22T10:06:18.617Z,10.12
2018-12-22T10:08:10.088Z,10.15
2018-12-22T10:09:10.140Z,10.31
2018-12-22T10:11:03.118Z,10.23
2018-12-22T10:12:03.171Z,10.22
2018-12-22T10:13:56.154Z,10.16
2018-12-22T10:18:59.941Z,10.20
2018-12-22T10:19:58.379Z,10.25
2018-12-22T10:21:51.863Z,10.34
2018-12-22T10:22:51.957Z,10.30
2018-12-22T10:27:04.933Z,10.40
2018-12-22T10:28:04.425Z,10.37
2018-12-22T10:29:57.984Z,10.42
2018-12-22T10:30:57.516Z,10.48
2018-12-22T10:32:50.498Z,10.53
2018-12-22T10:33:50.580Z,10.53
2018-12-22T10:35:43.542Z,10.37
2018-12-22T10:36:43.599Z,10.41
2018-12-22T10:38:36.578Z,10.48
2018-12-22T10:39:36.630Z,10.53
2018-12-22T10:41:29.647Z,10.49
2018-12-22T10:42:29.680Z,10.61
2018-12-22T10:44:22.670Z,10.54
2018-12-22T10:45:22.727Z,10.51
2018-12-22T10:47:15.705Z,10.54
2018-12-22T10:48:15.768Z,10.54
2018-12-22T10:50:08.779Z,10.51
2018-12-22T10:51:08.803Z,10.59
2018-12-22T10:53:01.785Z,10.51
2018-12-22T10:54:01.841Z,10.49
2018-12-22T10:55:54.819Z,10.44
2018-12-22T10:56:54.881Z,10.49
2018-12-22T10:58:47.866Z,10.53
2018-12-22T10:59:47.911Z,10.54
2018-12-22T11:01:40.888Z,10.51
2018-12-22T11:02:40.946Z,10.44
2018-12-22T11:04:33.936Z,10.46
2018-12-22T11:05:33.986Z,10.51
2018-12-22T11:07:26.976Z,10.53
2018-12-22T11:08:27.047Z,10.59
2018-12-22T11:10:20.016Z,10.53
2018-12-22T11:11:20.064Z,10.46
2018-12-22T11:13:13.043Z,10.57
2018-12-22T11:14:13.099Z,10.68
2018-12-22T11:16:06.086Z,10.69
2018-12-22T11:17:06.135Z,10.72
2018-12-22T11:18:59.127Z,10.64
2018-12-22T11:19:59.171Z,10.74
2018-12-22T11:21:52.162Z,10.76
2018-12-22T11:22:52.219Z,10.89
2018-12-22T11:24:45.209Z,10.96
2018-12-22T11:25:45.259Z,10.90
2018-12-22T11:27:38.242Z,10.99
2018-12-22T11:28:38.302Z,11.07
2018-12-22T11:30:31.290Z,11.05
2018-12-22T11:31:35.072Z,11.10
2018-12-22T11:33:24.334Z,11.12
2018-12-22T11:34:24.386Z,11.07
2018-12-22T11:36:47.420Z,11.17
2018-12-22T11:37:42.282Z,11.12
2018-12-22T11:39:35.789Z,11.10
2018-12-22T11:40:35.852Z,11.18
2018-12-22T11:42:29.722Z,11.11
2018-12-22T11:43:29.771Z,11.15
2018-12-22T11:45:22.735Z,11.14
2018-12-22T11:46:22.808Z,11.11
2018-12-22T11:48:15.754Z,11.10
2018-12-22T11:49:15.823Z,11.12
2018-12-22T11:51:08.816Z,11.05
2018-12-22T11:52:08.857Z,11.11
2018-12-22T11:54:25.992Z,11.04
2018-12-22T11:55:26.048Z,11.17
2018-12-22T11:57:21.483Z,11.18
2018-12-22T11:58:21.554Z,11.17
2018-12-22T12:00:14.523Z,11.11
2018-12-22T12:01:14.598Z,11.23
2018-12-22T12:03:07.604Z,11.19
2018-12-22T12:04:07.769Z,11.26
2018-12-22T12:06:01.679Z,11.23
2018-12-22T12:07:01.733Z,11.07
2018-12-22T12:08:54.762Z,11.15
2018-12-22T12:09:54.771Z,11.15
2018-12-22T12:11:47.765Z,11.14
2018-12-22T12:12:47.806Z,11.05
2018-12-22T12:14:40.815Z,11.00
2018-12-22T12:15:40.847Z,10.92
2018-12-22T12:17:33.869Z,10.86
2018-12-22T12:18:33.884Z,10.89
2018-12-22T12:20:26.875Z,10.97
2018-12-22T12:21:26.925Z,10.94
2018-12-22T12:23:19.915Z,11.12
2018-12-22T12:24:19.978Z,11.10
2018-12-22T12:26:12.969Z,11.00
2018-12-22T12:27:13.020Z,10.96
2018-12-22T12:29:05.999Z,10.97
2018-12-22T12:30:06.075Z,10.96
2018-12-22T12:31:59.062Z,10.89
2018-12-22T12:32:59.095Z,10.89
2018-12-22T12:34:52.075Z,10.84
2018-12-22T12:35:52.179Z,10.90
2018-12-22T12:37:45.129Z,10.84
2018-12-22T12:38:45.179Z,10.84
2018-12-22T12:40:38.167Z,10.92
2018-12-22T12:41:38.220Z,10.96
2018-12-22T12:43:31.194Z,10.96
2018-12-22T12:44:31.277Z,10.94
2018-12-22T12:46:24.251Z,10.96
2018-12-22T12:47:24.297Z,10.97
2018-12-22T12:49:17.283Z,11.11
2018-12-22T12:50:17.330Z,11.19
2018-12-22T12:52:10.326Z,11.18
2018-12-22T12:53:10.375Z,11.10
2018-12-22T12:55:03.875Z,11.05
2018-12-22T12:56:03.920Z,11.08
2018-12-22T12:57:56.956Z,11.11
2018-12-22T12:58:56.971Z,11.19
2018-12-22T13:00:49.982Z,11.12
2018-12-22T13:01:50.016Z,11.22
2018-12-22T13:03:43.002Z,11.26
2018-12-22T13:04:43.061Z,11.26
2018-12-22T13:06:36.073Z,11.23
2018-12-22T13:07:36.099Z,11.23
2018-12-22T13:09:29.080Z,11.18
2018-12-22T13:10:29.142Z,11.17
2018-12-22T13:12:22.136Z,11.23
2018-12-22T13:13:22.193Z,11.04
2018-12-22T13:15:15.177Z,11.00
2018-12-22T13:16:15.229Z,10.96
2018-12-22T13:18:08.227Z,10.90
2018-12-22T13:19:08.289Z,10.84
2018-12-22T13:21:01.270Z,10.86
2018-12-22T13:22:01.338Z,10.84
2018-12-22T13:23:54.300Z,10.79
2018-12-22T13:24:54.347Z,10.79
2018-12-22T13:26:47.340Z,10.93
2018-12-22T13:27:47.385Z,10.87
2018-12-22T13:29:40.363Z,10.86
2018-12-22T13:30:40.420Z,10.93
2018-12-22T13:32:33.408Z,10.89
2018-12-22T13:33:33.456Z,10.99
2018-12-22T13:35:26.587Z,10.96
2018-12-22T13:36:34.299Z,10.89
2018-12-22T13:38:19.495Z,10.94
2018-12-22T13:39:19.533Z,10.87
2018-12-22T13:41:12.513Z,10.90
2018-12-22T13:42:12.570Z,10.86
2018-12-22T13:44:05.557Z,10.82
2018-12-22T13:45:05.605Z,10.86
2018-12-22T13:46:58.595Z,10.82
2018-12-22T13:47:58.709Z,10.84
2018-12-22T13:49:51.738Z,10.82
2018-12-22T13:50:52.134Z,10.93
2018-12-22T13:52:44.724Z,10.89
2018-12-22T13:53:44.724Z,10.92
2018-12-22T13:55:37.702Z,11.00
2018-12-22T13:56:37.768Z,10.89
2018-12-22T13:58:30.747Z,10.97
2018-12-22T13:59:30.820Z,10.92
2018-12-22T14:01:23.778Z,10.87
2018-12-22T14:02:23.836Z,10.94
2018-12-22T14:04:16.825Z,11.00
2018-12-22T14:05:16.872Z,10.99
2018-12-22T14:07:09.853Z,10.96
2018-12-22T14:08:09.914Z,10.90
2018-12-22T14:10:02.906Z,10.96
2018-12-22T14:11:02.950Z,10.93
2018-12-22T14:12:55.937Z,10.87
2018-12-22T14:13:55.991Z,10.82
2018-12-22T14:15:48.968Z,10.93
2018-12-22T14:16:49.023Z,10.82
2018-12-22T14:18:42.016Z,10.81
2018-12-22T14:19:42.063Z,10.82
2018-12-22T14:21:35.043Z,10.90
2018-12-22T14:22:35.102Z,10.81
2018-12-22T14:24:28.091Z,10.81
2018-12-22T14:25:28.136Z,10.86
2018-12-22T14:27:21.114Z,10.84
2018-12-22T14:28:21.175Z,10.89
2018-12-22T14:30:14.177Z,10.79
2018-12-22T14:31:14.312Z,10.71
2018-12-22T14:33:07.230Z,10.69
2018-12-22T14:34:07.273Z,10.71
2018-12-22T14:36:00.258Z,10.53
2018-12-22T14:37:00.309Z,10.59
2018-12-22T14:38:53.324Z,10.53
2018-12-22T14:39:53.351Z,10.44
2018-12-22T14:41:46.335Z,10.35
2018-12-22T14:42:46.399Z,10.37
2018-12-22T14:44:39.405Z,10.26
2018-12-22T14:45:39.449Z,10.30
2018-12-22T14:47:32.448Z,10.19
2018-12-22T14:48:32.503Z,10.10
2018-12-22T14:50:25.498Z,10.16
2018-12-22T14:51:25.551Z,10.12
2018-12-22T14:53:18.553Z,10.10
2018-12-22T14:54:18.587Z,10.01
2018-12-22T14:56:11.591Z,10.05
2018-12-22T14:57:12.019Z,9.97
2018-12-22T14:59:04.607Z,10.05
2018-12-22T15:00:04.664Z,10.13
2018-12-22T15:01:57.644Z,10.12
2018-12-22T15:02:57.700Z,10.09
2018-12-22T15:04:50.693Z,10.07
2018-12-22T15:05:50.740Z,10.05
2018-12-22T15:07:43.717Z,10.07
2018-12-22T15:08:43.774Z,10.05
2018-12-22T15:10:36.771Z,10.16
2018-12-22T15:11:36.818Z,10.17
2018-12-22T15:13:29.819Z,10.13
2018-12-22T15:14:29.858Z,10.12
2018-12-22T15:16:22.849Z,10.09
2018-12-22T15:17:22.899Z,10.01
2018-12-22T15:19:15.899Z,9.98
2018-12-22T15:20:15.944Z,9.99
2018-12-22T15:22:08.930Z,9.95
2018-12-22T15:23:08.979Z,9.89
2018-12-22T15:25:01.987Z,9.89
2018-12-22T15:26:02.014Z,9.91
2018-12-22T15:27:55.013Z,9.77
2018-12-22T15:28:55.066Z,9.66
2018-12-22T15:30:48.040Z,9.73
2018-12-22T15:31:48.093Z,9.58
2018-12-22T15:33:41.597Z,9.59
2018-12-22T15:34:41.655Z,9.58
2018-12-22T15:36:34.661Z,9.55
2018-12-22T15:37:34.694Z,9.50
2018-12-22T15:39:27.687Z,9.39
2018-12-22T15:40:27.745Z,9.40
2018-12-22T15:42:20.757Z,9.37
2018-12-22T15:43:20.781Z,9.40
2018-12-22T15:45:13.765Z,9.48
2018-12-22T15:46:13.814Z,9.43
2018-12-22T15:48:06.794Z,9.47
2018-12-22T15:49:06.854Z,9.36
2018-12-22T15:50:59.841Z,9.40
2018-12-22T15:51:59.894Z,9.41
2018-12-22T15:53:52.872Z,9.39
2018-12-22T15:54:52.921Z,9.39
2018-12-22T15:56:45.910Z,9.41
2018-12-22T15:57:45.960Z,9.39
2018-12-22T15:59:38.940Z,9.25
2018-12-22T16:00:38.995Z,9.31
2018-12-22T16:02:31.987Z,9.29
2018-12-22T16:03:32.035Z,9.34
2018-12-22T16:05:25.024Z,9.34
2018-12-22T16:06:25.079Z,9.37
2018-12-22T16:08:18.068Z,9.36
2018-12-22T16:09:18.114Z,9.39
2018-12-22T16:11:11.098Z,9.55
2018-12-22T16:12:11.148Z,9.54
2018-12-22T16:14:04.212Z,9.56
2018-12-22T16:15:04.181Z,9.55
2018-12-22T16:16:57.174Z,9.55
2018-12-22T16:17:57.231Z,9.54
2018-12-22T16:19:50.231Z,9.50
2018-12-22T16:20:50.289Z,9.47
2018-12-22T16:22:43.312Z,9.47
2018-12-22T16:23:43.361Z,9.54
2018-12-22T16:25:36.334Z,9.55
2018-12-22T16:26:36.392Z,9.61
2018-12-22T16:28:29.400Z,9.50
2018-12-22T16:29:29.437Z,9.50
2018-12-22T16:31:34.053Z,9.58
2018-12-22T16:32:34.101Z,9.55
2018-12-22T16:34:27.089Z,9.55
2018-12-22T16:35:27.163Z,9.50
2018-12-22T16:37:20.129Z,9.50
2018-12-22T16:38:20.198Z,9.55
2018-12-22T16:40:13.154Z,9.48
2018-12-22T16:41:13.218Z,9.54
2018-12-22T16:43:06.200Z,9.56
2018-12-22T16:44:06.246Z,9.58
2018-12-22T16:45:59.222Z,9.55
2018-12-22T16:46:59.278Z,9.58
2018-12-22T16:48:52.269Z,9.55
2018-12-22T16:49:52.321Z,9.55
2018-12-22T16:51:45.307Z,9.51
2018-12-22T16:52:45.361Z,9.58
2018-12-22T16:54:38.346Z,9.54
2018-12-22T16:55:38.396Z,9.50
2018-12-22T17:02:56.446Z,9.40
2018-12-22T17:03:56.456Z,9.40
2018-12-22T17:05:49.435Z,9.39
2018-12-22T17:06:49.494Z,9.44
2018-12-22T17:08:42.478Z,9.36
2018-12-22T17:09:42.537Z,9.40
2018-12-22T17:11:35.504Z,9.39
2018-12-22T17:12:35.557Z,9.43
2018-12-22T17:14:28.546Z,9.37
2018-12-22T17:15:28.595Z,9.39
2018-12-22T17:17:21.584Z,9.50
2018-12-22T17:18:21.726Z,9.46
2018-12-22T17:20:14.612Z,9.51
2018-12-22T17:21:14.666Z,9.56
2018-12-22T17:23:07.658Z,9.66
2018-12-22T17:24:07.707Z,9.58
2018-12-22T17:26:00.705Z,9.61
2018-12-22T17:27:00.751Z,9.62
2018-12-22T17:28:53.743Z,9.64
2018-12-22T17:29:53.797Z,9.58
2018-12-22T17:31:46.771Z,9.54
2018-12-22T17:32:46.832Z,9.44
2018-12-22T17:34:39.820Z,9.54
2018-12-22T17:35:39.866Z,9.54
2018-12-22T17:37:32.859Z,9.48
2018-12-22T17:38:32.900Z,9.40
2018-12-22T17:40:25.874Z,9.46
2018-12-22T17:41:25.930Z,9.32
2018-12-22T17:43:18.923Z,9.32
2018-12-22T17:44:18.967Z,9.39
2018-12-22T17:46:11.951Z,9.23
2018-12-22T17:47:12.004Z,9.26
2018-12-22T17:49:05.042Z,9.26
2018-12-22T17:50:05.042Z,9.23
2018-12-22T17:51:58.018Z,9.22
2018-12-22T17:52:59.651Z,9.21
2018-12-22T17:54:51.060Z,9.26
2018-12-22T17:55:51.111Z,9.21
2018-12-22T17:57:44.095Z,9.18
2018-12-22T17:58:44.147Z,9.23
2018-12-22T18:00:37.130Z,9.16
2018-12-22T18:01:37.184Z,9.11
2018-12-22T18:03:30.196Z,9.06
2018-12-22T18:04:30.219Z,9.03
2018-12-22T18:06:23.707Z,9.03
2018-12-22T18:07:23.760Z,9.00
2018-12-22T18:09:16.744Z,9.02
2018-12-22T18:10:16.795Z,9.00
2018-12-22T18:12:09.773Z,9.02
2018-12-22T18:13:09.830Z,9.04
2018-12-22T18:15:02.817Z,8.94
2018-12-22T18:16:02.865Z,8.99
2018-12-22T18:17:55.849Z,8.92
2018-12-22T18:18:55.899Z,8.87
2018-12-22T18:20:48.894Z,8.92
2018-12-22T18:21:48.938Z,8.97
2018-12-22T18:23:41.923Z,9.00
2018-12-22T18:24:41.974Z,9.02
2018-12-22T18:26:34.951Z,9.00
2018-12-22T18:27:35.023Z,9.00
2018-12-22T18:29:28.005Z,9.00
2018-12-22T18:30:28.043Z,9.03
2018-12-22T18:32:21.052Z,8.94
2018-12-22T18:33:21.102Z,8.89
2018-12-22T18:35:14.074Z,8.94
2018-12-22T18:36:14.122Z,8.91
2018-12-22T18:38:07.110Z,8.89
2018-12-22T18:39:07.158Z,8.89
2018-12-22T18:41:00.131Z,8.89
2018-12-22T18:42:00.188Z,8.85
2018-12-22T18:43:53.172Z,8.94
2018-12-22T18:44:53.225Z,9.03
2018-12-22T18:46:46.209Z,9.02
2018-12-22T18:47:46.266Z,9.08
2018-12-22T18:49:39.256Z,9.16
2018-12-22T18:50:39.302Z,9.11
2018-12-22T18:52:32.274Z,9.23
2018-12-22T18:53:32.337Z,9.19
2018-12-22T18:55:25.325Z,9.23
2018-12-22T18:56:25.380Z,9.28
2018-12-22T18:58:18.358Z,9.26
2018-12-22T18:59:18.409Z,9.23
2018-12-22T19:01:11.385Z,9.28
2018-12-22T19:02:11.442Z,9.22
2018-12-22T19:04:04.427Z,9.19
2018-12-22T19:05:04.480Z,9.18